sensor_id;sensor_type;location;lat;lon;timestamp;temperature;humidity
13223;DHT22;6676;45.192;5.722;2023-07-24T00:01:09;25.90;99.90
13223;DHT22;6676;45.192;5.722;2023-07-24T00:04:00;26.00;99.90
13223;DHT22;6676;45.192;5.722;2023-07-24T00:06:51;26.00;99.90
13223;DHT22;6676;45.192;5.722;2023-07-24T00:09:43;26.00;99.90
13223;DHT22;6676;45.192;5.722;2023-07-24T00:12:34;25.90;99.90
13223;DHT22;6676;45.192;5.722;2023-07-24T00:15:25;25.90;99.90
13223;DHT22;6676;45.192;5.722;2023-07-24T00:18:17;25.90;99.90
13223;DHT22;6676;45.192;5.722;2023-07-24T00:21:08;25.80;99.90
13223;DHT22;6676;45.192;5.722;2023-07-24T00:24:00;25.60;99.90
13223;DHT22;6676;45.192;5.722;2023-07-24T00:26:51;25.70;99.90
13223;DHT22;6676;45.192;5.722;2023-07-24T00:29:43;25.60;99.90
13223;DHT22;6676;45.192;5.722;2023-07-24T00:32:34;25.60;99.90
13223;DHT22;6676;45.192;5.722;2023-07-24T00:35:26;25.60;99.90
13223;DHT22;6676;45.192;5.722;2023-07-24T00:40:57;25.50;99.90
13223;DHT22;6676;45.192;5.722;2023-07-24T00:43:48;25.40;99.90
13223;DHT22;6676;45.192;5.722;2023-07-24T00:46:39;25.40;99.90
13223;DHT22;6676;45.192;5.722;2023-07-24T00:49:31;25.40;99.90
13223;DHT22;6676;45.192;5.722;2023-07-24T00:52:23;25.40;99.90
13223;DHT22;6676;45.192;5.722;2023-07-24T00:55:14;25.40;99.90
13223;DHT22;6676;45.192;5.722;2023-07-24T01:00:45;25.40;99.90
13223;DHT22;6676;45.192;5.722;2023-07-24T01:03:37;25.50;99.90
13223;DHT22;6676;45.192;5.722;2023-07-24T01:06:30;25.50;99.90
13223;DHT22;6676;45.192;5.722;2023-07-24T01:09:23;25.50;99.90
13223;DHT22;6676;45.192;5.722;2023-07-24T01:12:18;25.50;99.90
13223;DHT22;6676;45.192;5.722;2023-07-24T01:15:13;25.40;99.90
13223;DHT22;6676;45.192;5.722;2023-07-24T01:20:49;25.50;99.90
13223;DHT22;6676;45.192;5.722;2023-07-24T01:23:49;25.50;99.90
13223;DHT22;6676;45.192;5.722;2023-07-24T01:26:40;25.50;99.90
13223;DHT22;6676;45.192;5.722;2023-07-24T01:29:31;25.40;99.90
13223;DHT22;6676;45.192;5.722;2023-07-24T01:32:23;25.40;99.90
13223;DHT22;6676;45.192;5.722;2023-07-24T01:35:14;25.30;99.90
13223;DHT22;6676;45.192;5.722;2023-07-24T01:38:06;25.30;99.90
13223;DHT22;6676;45.192;5.722;2023-07-24T01:40:58;25.20;99.90
13223;DHT22;6676;45.192;5.722;2023-07-24T01:43:50;25.10;99.90
13223;DHT22;6676;45.192;5.722;2023-07-24T01:46:41;25.10;99.90
13223;DHT22;6676;45.192;5.722;2023-07-24T01:49:33;25.00;99.90
13223;DHT22;6676;45.192;5.722;2023-07-24T01:52:24;25.00;99.90
13223;DHT22;6676;45.192;5.722;2023-07-24T01:55:16;24.90;99.90
13223;DHT22;6676;45.192;5.722;2023-07-24T01:58:28;25.00;99.90
13223;DHT22;6676;45.192;5.722;2023-07-24T02:01:19;24.90;99.90
13223;DHT22;6676;45.192;5.722;2023-07-24T02:04:11;24.90;99.90
13223;DHT22;6676;45.192;5.722;2023-07-24T02:15:02;25.90;99.90
13223;DHT22;6676;45.192;5.722;2023-07-24T02:23:17;24.60;99.90
13223;DHT22;6676;45.192;5.722;2023-07-24T02:26:09;23.90;99.90
13223;DHT22;6676;45.192;5.722;2023-07-24T02:29:00;23.70;99.90
13223;DHT22;6676;45.192;5.722;2023-07-24T02:31:52;23.70;99.90
13223;DHT22;6676;45.192;5.722;2023-07-24T02:34:45;23.70;99.90
13223;DHT22;6676;45.192;5.722;2023-07-24T02:37:36;23.80;99.90
13223;DHT22;6676;45.192;5.722;2023-07-24T02:40:28;23.90;99.90
13223;DHT22;6676;45.192;5.722;2023-07-24T02:46:03;23.80;99.90
13223;DHT22;6676;45.192;5.722;2023-07-24T02:48:55;23.80;99.90
13223;DHT22;6676;45.192;5.722;2023-07-24T02:54:28;23.70;99.90
13223;DHT22;6676;45.192;5.722;2023-07-24T03:00:01;23.50;99.90
13223;DHT22;6676;45.192;5.722;2023-07-24T03:02:53;23.50;99.90
13223;DHT22;6676;45.192;5.722;2023-07-24T03:08:26;23.60;99.90
13223;DHT22;6676;45.192;5.722;2023-07-24T03:11:17;23.40;99.90
13223;DHT22;6676;45.192;5.722;2023-07-24T03:14:09;23.10;99.90
13223;DHT22;6676;45.192;5.722;2023-07-24T03:17:00;22.90;99.90
13223;DHT22;6676;45.192;5.722;2023-07-24T03:19:54;22.90;99.90
13223;DHT22;6676;45.192;5.722;2023-07-24T03:22:46;22.90;99.90
13223;DHT22;6676;45.192;5.722;2023-07-24T03:25:37;22.90;99.90
13223;DHT22;6676;45.192;5.722;2023-07-24T03:28:28;23.00;99.90
13223;DHT22;6676;45.192;5.722;2023-07-24T03:31:20;23.10;99.90
13223;DHT22;6676;45.192;5.722;2023-07-24T03:34:12;23.10;99.90
13223;DHT22;6676;45.192;5.722;2023-07-24T03:39:42;23.10;99.90
13223;DHT22;6676;45.192;5.722;2023-07-24T03:42:34;23.10;99.90
13223;DHT22;6676;45.192;5.722;2023-07-24T03:45:26;23.20;99.90
13223;DHT22;6676;45.192;5.722;2023-07-24T03:48:24;23.40;99.90
13223;DHT22;6676;45.192;5.722;2023-07-24T03:51:15;23.10;99.90
13223;DHT22;6676;45.192;5.722;2023-07-24T03:56:49;22.60;99.90
13223;DHT22;6676;45.192;5.722;2023-07-24T03:59:43;22.50;99.90
13223;DHT22;6676;45.192;5.722;2023-07-24T04:05:21;22.50;99.90
13223;DHT22;6676;45.192;5.722;2023-07-24T04:08:13;22.40;99.90
13223;DHT22;6676;45.192;5.722;2023-07-24T04:11:04;22.40;99.90
13223;DHT22;6676;45.192;5.722;2023-07-24T04:16:35;22.40;99.90
13223;DHT22;6676;45.192;5.722;2023-07-24T04:19:26;22.40;99.90
13223;DHT22;6676;45.192;5.722;2023-07-24T04:24:57;22.40;99.90
13223;DHT22;6676;45.192;5.722;2023-07-24T04:27:48;22.30;99.90
13223;DHT22;6676;45.192;5.722;2023-07-24T04:30:39;22.20;99.90
13223;DHT22;6676;45.192;5.722;2023-07-24T04:33:31;22.20;99.90
13223;DHT22;6676;45.192;5.722;2023-07-24T04:36:22;22.00;99.90
13223;DHT22;6676;45.192;5.722;2023-07-24T04:39:13;21.90;99.90
13223;DHT22;6676;45.192;5.722;2023-07-24T04:42:05;22.00;99.90
13223;DHT22;6676;45.192;5.722;2023-07-24T04:44:57;21.90;99.90
13223;DHT22;6676;45.192;5.722;2023-07-24T04:50:29;21.40;99.90
13223;DHT22;6676;45.192;5.722;2023-07-24T04:56:04;21.80;99.90
13223;DHT22;6676;45.192;5.722;2023-07-24T05:04:14;21.90;99.90
13223;DHT22;6676;45.192;5.722;2023-07-24T05:09:44;21.90;99.90
13223;DHT22;6676;45.192;5.722;2023-07-24T05:15:18;22.00;99.90
13223;DHT22;6676;45.192;5.722;2023-07-24T05:20:53;21.70;99.90
13223;DHT22;6676;45.192;5.722;2023-07-24T05:26:24;21.70;99.90
13223;DHT22;6676;45.192;5.722;2023-07-24T05:34:34;21.70;99.90
13223;DHT22;6676;45.192;5.722;2023-07-24T05:37:25;21.80;99.90
13223;DHT22;6676;45.192;5.722;2023-07-24T05:40:17;21.90;99.90
13223;DHT22;6676;45.192;5.722;2023-07-24T05:43:08;21.90;99.90
13223;DHT22;6676;45.192;5.722;2023-07-24T05:46:00;21.80;99.90
13223;DHT22;6676;45.192;5.722;2023-07-24T05:48:51;21.70;99.90
13223;DHT22;6676;45.192;5.722;2023-07-24T05:54:22;21.50;99.90
13223;DHT22;6676;45.192;5.722;2023-07-24T05:57:13;21.50;99.90
13223;DHT22;6676;45.192;5.722;2023-07-24T06:00:07;21.50;99.90
13223;DHT22;6676;45.192;5.722;2023-07-24T06:03:01;21.60;99.90
13223;DHT22;6676;45.192;5.722;2023-07-24T06:05:54;21.60;99.90
13223;DHT22;6676;45.192;5.722;2023-07-24T06:08:45;21.40;99.90
13223;DHT22;6676;45.192;5.722;2023-07-24T06:11:37;21.50;99.90
13223;DHT22;6676;45.192;5.722;2023-07-24T06:14:29;21.50;99.90
13223;DHT22;6676;45.192;5.722;2023-07-24T06:19:58;21.60;99.90
13223;DHT22;6676;45.192;5.722;2023-07-24T06:22:49;21.70;99.90
13223;DHT22;6676;45.192;5.722;2023-07-24T06:25:41;22.00;99.90
13223;DHT22;6676;45.192;5.722;2023-07-24T06:28:33;22.10;99.90
13223;DHT22;6676;45.192;5.722;2023-07-24T06:31:24;22.20;99.90
13223;DHT22;6676;45.192;5.722;2023-07-24T06:34:16;22.30;99.90
13223;DHT22;6676;45.192;5.722;2023-07-24T06:39:45;22.40;99.90
13223;DHT22;6676;45.192;5.722;2023-07-24T06:42:37;22.50;99.90
13223;DHT22;6676;45.192;5.722;2023-07-24T06:45:28;22.60;99.90
13223;DHT22;6676;45.192;5.722;2023-07-24T06:50:57;22.70;99.90
13223;DHT22;6676;45.192;5.722;2023-07-24T06:56:29;22.90;99.90
13223;DHT22;6676;45.192;5.722;2023-07-24T07:04:45;22.80;99.90
13223;DHT22;6676;45.192;5.722;2023-07-24T07:10:16;22.60;99.90
13223;DHT22;6676;45.192;5.722;2023-07-24T07:13:07;22.60;99.90
13223;DHT22;6676;45.192;5.722;2023-07-24T07:15:59;22.70;99.90
13223;DHT22;6676;45.192;5.722;2023-07-24T07:18:52;22.80;99.90
13223;DHT22;6676;45.192;5.722;2023-07-24T07:24:23;23.10;99.90
13223;DHT22;6676;45.192;5.722;2023-07-24T07:27:14;23.10;99.90
13223;DHT22;6676;45.192;5.722;2023-07-24T07:30:09;23.10;99.90
13223;DHT22;6676;45.192;5.722;2023-07-24T07:33:00;23.20;99.90
13223;DHT22;6676;45.192;5.722;2023-07-24T07:35:52;23.30;99.90
13223;DHT22;6676;45.192;5.722;2023-07-24T07:38:44;23.40;99.90
13223;DHT22;6676;45.192;5.722;2023-07-24T07:41:36;23.50;99.90
13223;DHT22;6676;45.192;5.722;2023-07-24T07:44:28;23.60;99.90
13223;DHT22;6676;45.192;5.722;2023-07-24T07:47:19;23.60;99.90
13223;DHT22;6676;45.192;5.722;2023-07-24T07:52:53;23.80;99.90
13223;DHT22;6676;45.192;5.722;2023-07-24T07:55:44;23.90;99.90
13223;DHT22;6676;45.192;5.722;2023-07-24T07:58:36;24.10;99.90
13223;DHT22;6676;45.192;5.722;2023-07-24T08:01:27;24.10;99.90
13223;DHT22;6676;45.192;5.722;2023-07-24T08:04:20;24.10;99.90
13223;DHT22;6676;45.192;5.722;2023-07-24T08:09:51;24.30;99.90
13223;DHT22;6676;45.192;5.722;2023-07-24T08:12:42;24.20;99.90
13223;DHT22;6676;45.192;5.722;2023-07-24T08:15:35;24.10;99.90
13223;DHT22;6676;45.192;5.722;2023-07-24T08:18:27;24.10;99.90
13223;DHT22;6676;45.192;5.722;2023-07-24T08:21:18;24.10;99.90
13223;DHT22;6676;45.192;5.722;2023-07-24T08:24:10;24.10;99.90
13223;DHT22;6676;45.192;5.722;2023-07-24T08:29:40;24.10;99.90
13223;DHT22;6676;45.192;5.722;2023-07-24T08:32:32;24.10;99.90
13223;DHT22;6676;45.192;5.722;2023-07-24T08:35:23;24.20;99.90
13223;DHT22;6676;45.192;5.722;2023-07-24T08:38:14;24.30;99.90
13223;DHT22;6676;45.192;5.722;2023-07-24T08:41:08;24.40;99.90
13223;DHT22;6676;45.192;5.722;2023-07-24T08:44:00;24.30;99.90
13223;DHT22;6676;45.192;5.722;2023-07-24T08:49:30;24.10;99.90
13223;DHT22;6676;45.192;5.722;2023-07-24T08:52:22;24.10;99.90
13223;DHT22;6676;45.192;5.722;2023-07-24T08:55:15;24.00;99.90
13223;DHT22;6676;45.192;5.722;2023-07-24T09:00:47;24.20;99.90
13223;DHT22;6676;45.192;5.722;2023-07-24T09:03:39;24.40;99.90
13223;DHT22;6676;45.192;5.722;2023-07-24T09:06:30;24.50;99.90
13223;DHT22;6676;45.192;5.722;2023-07-24T09:09:28;24.80;99.90
13223;DHT22;6676;45.192;5.722;2023-07-24T09:15:05;25.30;99.90
13223;DHT22;6676;45.192;5.722;2023-07-24T09:17:57;25.30;99.90
13223;DHT22;6676;45.192;5.722;2023-07-24T09:20:49;25.10;99.90
13223;DHT22;6676;45.192;5.722;2023-07-24T09:26:24;25.70;99.90
13223;DHT22;6676;45.192;5.722;2023-07-24T09:29:17;25.70;99.90
13223;DHT22;6676;45.192;5.722;2023-07-24T09:34:55;25.20;99.90
13223;DHT22;6676;45.192;5.722;2023-07-24T09:37:47;24.70;99.90
13223;DHT22;6676;45.192;5.722;2023-07-24T09:40:42;24.50;99.90
13223;DHT22;6676;45.192;5.722;2023-07-24T09:43:35;24.30;99.90
13223;DHT22;6676;45.192;5.722;2023-07-24T09:46:28;24.50;99.90
13223;DHT22;6676;45.192;5.722;2023-07-24T09:49:23;24.70;99.90
13223;DHT22;6676;45.192;5.722;2023-07-24T09:52:15;24.90;99.90
13223;DHT22;6676;45.192;5.722;2023-07-24T09:55:12;25.10;99.90
13223;DHT22;6676;45.192;5.722;2023-07-24T09:58:04;25.30;99.90
13223;DHT22;6676;45.192;5.722;2023-07-24T10:00:57;25.30;99.90
13223;DHT22;6676;45.192;5.722;2023-07-24T10:03:49;25.30;99.90
13223;DHT22;6676;45.192;5.722;2023-07-24T10:06:42;25.50;99.90
13223;DHT22;6676;45.192;5.722;2023-07-24T10:09:35;25.60;99.90
13223;DHT22;6676;45.192;5.722;2023-07-24T10:12:28;25.70;99.90
13223;DHT22;6676;45.192;5.722;2023-07-24T10:15:22;25.90;99.90
13223;DHT22;6676;45.192;5.722;2023-07-24T10:18:14;25.90;99.90
13223;DHT22;6676;45.192;5.722;2023-07-24T10:21:07;26.00;99.90
13223;DHT22;6676;45.192;5.722;2023-07-24T10:24:00;26.00;99.90
13223;DHT22;6676;45.192;5.722;2023-07-24T10:26:56;26.00;99.90
13223;DHT22;6676;45.192;5.722;2023-07-24T10:29:47;26.10;99.90
13223;DHT22;6676;45.192;5.722;2023-07-24T10:32:47;26.40;99.90
13223;DHT22;6676;45.192;5.722;2023-07-24T10:35:42;26.70;99.90
13223;DHT22;6676;45.192;5.722;2023-07-24T10:38:35;26.90;99.90
13223;DHT22;6676;45.192;5.722;2023-07-24T10:41:36;27.10;99.90
13223;DHT22;6676;45.192;5.722;2023-07-24T10:44:32;27.20;99.90
13223;DHT22;6676;45.192;5.722;2023-07-24T10:47:26;27.20;99.90
13223;DHT22;6676;45.192;5.722;2023-07-24T10:50:21;27.30;99.90
13223;DHT22;6676;45.192;5.722;2023-07-24T10:53:17;27.40;99.90
13223;DHT22;6676;45.192;5.722;2023-07-24T10:56:15;27.70;99.90
13223;DHT22;6676;45.192;5.722;2023-07-24T10:59:08;27.80;99.90
13223;DHT22;6676;45.192;5.722;2023-07-24T11:02:05;27.90;99.90
13223;DHT22;6676;45.192;5.722;2023-07-24T11:04:59;28.10;99.90
13223;DHT22;6676;45.192;5.722;2023-07-24T11:08:06;28.30;99.90
13223;DHT22;6676;45.192;5.722;2023-07-24T11:11:05;28.50;99.90
13223;DHT22;6676;45.192;5.722;2023-07-24T11:14:00;28.60;99.90
13223;DHT22;6676;45.192;5.722;2023-07-24T11:16:55;28.60;99.90
13223;DHT22;6676;45.192;5.722;2023-07-24T11:19:51;28.80;99.90
13223;DHT22;6676;45.192;5.722;2023-07-24T11:22:43;28.70;99.90
13223;DHT22;6676;45.192;5.722;2023-07-24T11:29:01;28.70;99.90
13223;DHT22;6676;45.192;5.722;2023-07-24T11:31:58;28.80;99.90
13223;DHT22;6676;45.192;5.722;2023-07-24T11:34:52;28.90;99.90
13223;DHT22;6676;45.192;5.722;2023-07-24T11:37:44;28.90;99.90
13223;DHT22;6676;45.192;5.722;2023-07-24T11:40:37;28.90;99.90
13223;DHT22;6676;45.192;5.722;2023-07-24T11:43:29;29.00;99.90
13223;DHT22;6676;45.192;5.722;2023-07-24T11:46:25;28.70;99.90
13223;DHT22;6676;45.192;5.722;2023-07-24T11:49:17;28.40;99.90
13223;DHT22;6676;45.192;5.722;2023-07-24T11:52:10;28.30;99.90
13223;DHT22;6676;45.192;5.722;2023-07-24T11:55:02;28.10;99.90
13223;DHT22;6676;45.192;5.722;2023-07-24T11:57:57;28.00;99.90
13223;DHT22;6676;45.192;5.722;2023-07-24T12:00:49;27.90;99.90
13223;DHT22;6676;45.192;5.722;2023-07-24T12:06:25;28.20;99.90
13223;DHT22;6676;45.192;5.722;2023-07-24T12:09:16;28.40;99.90
13223;DHT22;6676;45.192;5.722;2023-07-24T12:12:10;28.60;99.90
13223;DHT22;6676;45.192;5.722;2023-07-24T12:15:03;28.40;99.90
13223;DHT22;6676;45.192;5.722;2023-07-24T12:17:54;28.30;99.90
13223;DHT22;6676;45.192;5.722;2023-07-24T12:20:46;28.60;99.90
13223;DHT22;6676;45.192;5.722;2023-07-24T12:23:37;28.70;99.90
13223;DHT22;6676;45.192;5.722;2023-07-24T12:26:29;28.60;99.90
13223;DHT22;6676;45.192;5.722;2023-07-24T12:29:20;28.40;99.90
13223;DHT22;6676;45.192;5.722;2023-07-24T12:32:12;28.30;99.90
13223;DHT22;6676;45.192;5.722;2023-07-24T12:35:04;28.30;99.90
13223;DHT22;6676;45.192;5.722;2023-07-24T12:37:55;28.50;99.90
13223;DHT22;6676;45.192;5.722;2023-07-24T12:40:47;28.90;99.90
13223;DHT22;6676;45.192;5.722;2023-07-24T12:43:38;29.00;99.90
13223;DHT22;6676;45.192;5.722;2023-07-24T12:46:29;29.20;99.90
13223;DHT22;6676;45.192;5.722;2023-07-24T12:49:21;29.10;99.90
13223;DHT22;6676;45.192;5.722;2023-07-24T12:52:12;29.00;99.90
13223;DHT22;6676;45.192;5.722;2023-07-24T12:55:03;29.10;99.90
13223;DHT22;6676;45.192;5.722;2023-07-24T12:57:54;29.10;99.90
13223;DHT22;6676;45.192;5.722;2023-07-24T13:00:46;29.10;99.90
13223;DHT22;6676;45.192;5.722;2023-07-24T13:03:37;29.00;99.90
13223;DHT22;6676;45.192;5.722;2023-07-24T13:06:28;29.10;99.90
13223;DHT22;6676;45.192;5.722;2023-07-24T13:09:20;29.10;99.90
13223;DHT22;6676;45.192;5.722;2023-07-24T13:12:13;28.80;99.90
13223;DHT22;6676;45.192;5.722;2023-07-24T13:15:07;28.60;99.90
13223;DHT22;6676;45.192;5.722;2023-07-24T13:20:37;28.80;99.90
13223;DHT22;6676;45.192;5.722;2023-07-24T13:23:29;29.10;99.90
13223;DHT22;6676;45.192;5.722;2023-07-24T13:26:20;29.30;99.90
13223;DHT22;6676;45.192;5.722;2023-07-24T13:29:12;29.30;99.90
13223;DHT22;6676;45.192;5.722;2023-07-24T13:32:04;29.30;99.90
13223;DHT22;6676;45.192;5.722;2023-07-24T13:34:56;29.60;99.90
13223;DHT22;6676;45.192;5.722;2023-07-24T13:37:48;30.00;99.90
13223;DHT22;6676;45.192;5.722;2023-07-24T13:40:40;30.00;99.90
13223;DHT22;6676;45.192;5.722;2023-07-24T13:43:32;30.00;99.90
13223;DHT22;6676;45.192;5.722;2023-07-24T13:46:24;30.20;99.90
13223;DHT22;6676;45.192;5.722;2023-07-24T13:49:15;30.10;99.90
13223;DHT22;6676;45.192;5.722;2023-07-24T13:52:08;30.40;99.90
13223;DHT22;6676;45.192;5.722;2023-07-24T13:54:59;30.50;99.90
13223;DHT22;6676;45.192;5.722;2023-07-24T13:57:51;30.70;99.90
13223;DHT22;6676;45.192;5.722;2023-07-24T14:00:43;30.90;99.90
13223;DHT22;6676;45.192;5.722;2023-07-24T14:03:35;30.90;99.90
13223;DHT22;6676;45.192;5.722;2023-07-24T14:06:26;30.90;99.90
13223;DHT22;6676;45.192;5.722;2023-07-24T14:09:18;31.50;99.90
13223;DHT22;6676;45.192;5.722;2023-07-24T14:12:09;32.20;99.90
13223;DHT22;6676;45.192;5.722;2023-07-24T14:15:01;32.20;99.90
13223;DHT22;6676;45.192;5.722;2023-07-24T14:17:52;32.60;99.90
13223;DHT22;6676;45.192;5.722;2023-07-24T14:20:44;33.20;99.90
13223;DHT22;6676;45.192;5.722;2023-07-24T14:23:37;33.60;99.90
13223;DHT22;6676;45.192;5.722;2023-07-24T14:26:28;33.70;99.90
13223;DHT22;6676;45.192;5.722;2023-07-24T14:29:20;33.70;99.90
13223;DHT22;6676;45.192;5.722;2023-07-24T14:32:11;33.50;99.90
13223;DHT22;6676;45.192;5.722;2023-07-24T14:35:03;33.10;99.90
13223;DHT22;6676;45.192;5.722;2023-07-24T14:40:33;34.10;99.90
13223;DHT22;6676;45.192;5.722;2023-07-24T14:46:11;35.70;99.90
13223;DHT22;6676;45.192;5.722;2023-07-24T14:49:03;36.50;99.90
13223;DHT22;6676;45.192;5.722;2023-07-24T14:51:54;36.80;99.90
13223;DHT22;6676;45.192;5.722;2023-07-24T14:57:27;36.70;99.90
13223;DHT22;6676;45.192;5.722;2023-07-24T15:00:18;35.90;99.90
13223;DHT22;6676;45.192;5.722;2023-07-24T15:03:10;35.40;99.90
13223;DHT22;6676;45.192;5.722;2023-07-24T15:06:01;35.30;99.90
13223;DHT22;6676;45.192;5.722;2023-07-24T15:08:56;36.20;99.90
13223;DHT22;6676;45.192;5.722;2023-07-24T15:11:47;36.30;99.40
13223;DHT22;6676;45.192;5.722;2023-07-24T15:14:38;34.90;99.50
13223;DHT22;6676;45.192;5.722;2023-07-24T15:17:29;33.80;99.90
13223;DHT22;6676;45.192;5.722;2023-07-24T15:20:20;33.70;99.90
13223;DHT22;6676;45.192;5.722;2023-07-24T15:23:12;34.10;99.90
13223;DHT22;6676;45.192;5.722;2023-07-24T15:26:03;34.50;99.90
13223;DHT22;6676;45.192;5.722;2023-07-24T15:28:55;35.40;99.40
13223;DHT22;6676;45.192;5.722;2023-07-24T15:31:46;34.40;99.90
13223;DHT22;6676;45.192;5.722;2023-07-24T15:34:38;33.10;99.90
13223;DHT22;6676;45.192;5.722;2023-07-24T15:37:29;31.80;99.90
13223;DHT22;6676;45.192;5.722;2023-07-24T15:43:01;29.90;99.90
13223;DHT22;6676;45.192;5.722;2023-07-24T15:45:52;29.20;99.90
13223;DHT22;6676;45.192;5.722;2023-07-24T15:48:43;28.60;99.90
13223;DHT22;6676;45.192;5.722;2023-07-24T15:51:35;28.40;99.90
13223;DHT22;6676;45.192;5.722;2023-07-24T15:54:28;28.30;99.90
13223;DHT22;6676;45.192;5.722;2023-07-24T15:57:19;28.00;99.90
13223;DHT22;6676;45.192;5.722;2023-07-24T16:00:13;27.80;99.90
13223;DHT22;6676;45.192;5.722;2023-07-24T16:03:07;28.00;99.90
13223;DHT22;6676;45.192;5.722;2023-07-24T16:05:58;27.50;99.90
13223;DHT22;6676;45.192;5.722;2023-07-24T16:08:49;27.60;99.90
13223;DHT22;6676;45.192;5.722;2023-07-24T16:11:41;27.50;99.90
13223;DHT22;6676;45.192;5.722;2023-07-24T16:14:33;27.50;99.90
13223;DHT22;6676;45.192;5.722;2023-07-24T16:17:25;27.40;99.90
13223;DHT22;6676;45.192;5.722;2023-07-24T16:20:21;27.40;99.90
13223;DHT22;6676;45.192;5.722;2023-07-24T16:23:13;27.70;99.90
13223;DHT22;6676;45.192;5.722;2023-07-24T16:26:04;28.20;99.90
13223;DHT22;6676;45.192;5.722;2023-07-24T16:28:56;28.40;99.90
13223;DHT22;6676;45.192;5.722;2023-07-24T16:31:47;28.30;99.90
13223;DHT22;6676;45.192;5.722;2023-07-24T16:34:39;27.70;99.90
13223;DHT22;6676;45.192;5.722;2023-07-24T16:37:30;27.30;99.90
13223;DHT22;6676;45.192;5.722;2023-07-24T16:40:22;27.10;99.90
13223;DHT22;6676;45.192;5.722;2023-07-24T16:43:14;27.10;99.90
13223;DHT22;6676;45.192;5.722;2023-07-24T16:46:05;27.00;99.90
13223;DHT22;6676;45.192;5.722;2023-07-24T16:48:58;27.20;99.90
13223;DHT22;6676;45.192;5.722;2023-07-24T16:51:50;27.50;99.90
13223;DHT22;6676;45.192;5.722;2023-07-24T16:54:42;27.40;99.90
13223;DHT22;6676;45.192;5.722;2023-07-24T16:57:34;27.10;99.90
13223;DHT22;6676;45.192;5.722;2023-07-24T17:00:27;26.90;99.90
13223;DHT22;6676;45.192;5.722;2023-07-24T17:03:18;26.90;99.90
13223;DHT22;6676;45.192;5.722;2023-07-24T17:06:09;26.80;99.90
13223;DHT22;6676;45.192;5.722;2023-07-24T17:09:01;26.80;99.90
13223;DHT22;6676;45.192;5.722;2023-07-24T17:11:52;26.70;99.90
13223;DHT22;6676;45.192;5.722;2023-07-24T17:14:44;26.50;99.90
13223;DHT22;6676;45.192;5.722;2023-07-24T17:17:35;26.50;99.90
13223;DHT22;6676;45.192;5.722;2023-07-24T17:20:26;26.50;99.90
13223;DHT22;6676;45.192;5.722;2023-07-24T17:23:18;26.50;99.90
13223;DHT22;6676;45.192;5.722;2023-07-24T17:26:09;26.70;99.90
13223;DHT22;6676;45.192;5.722;2023-07-24T17:29:01;26.90;99.90
13223;DHT22;6676;45.192;5.722;2023-07-24T17:31:52;27.50;99.90
13223;DHT22;6676;45.192;5.722;2023-07-24T17:34:44;27.90;99.90
13223;DHT22;6676;45.192;5.722;2023-07-24T17:37:35;28.40;99.90
13223;DHT22;6676;45.192;5.722;2023-07-24T17:40:28;28.50;99.90
13223;DHT22;6676;45.192;5.722;2023-07-24T17:43:19;28.20;99.90
13223;DHT22;6676;45.192;5.722;2023-07-24T17:46:11;28.10;99.90
13223;DHT22;6676;45.192;5.722;2023-07-24T17:49:05;28.00;99.90
13223;DHT22;6676;45.192;5.722;2023-07-24T17:51:56;27.80;99.90
13223;DHT22;6676;45.192;5.722;2023-07-24T17:54:47;27.40;99.90
13223;DHT22;6676;45.192;5.722;2023-07-24T17:57:39;27.10;99.90
13223;DHT22;6676;45.192;5.722;2023-07-24T18:00:30;27.00;99.90
13223;DHT22;6676;45.192;5.722;2023-07-24T18:03:22;26.40;99.90
13223;DHT22;6676;45.192;5.722;2023-07-24T18:06:14;26.00;99.90
13223;DHT22;6676;45.192;5.722;2023-07-24T18:09:05;25.80;99.90
13223;DHT22;6676;45.192;5.722;2023-07-24T18:11:57;25.70;99.90
13223;DHT22;6676;45.192;5.722;2023-07-24T18:14:48;25.80;99.90
13223;DHT22;6676;45.192;5.722;2023-07-24T18:17:40;25.80;99.90
13223;DHT22;6676;45.192;5.722;2023-07-24T18:20:33;25.80;99.90
13223;DHT22;6676;45.192;5.722;2023-07-24T18:23:24;25.60;99.90
13223;DHT22;6676;45.192;5.722;2023-07-24T18:26:16;25.30;99.90
13223;DHT22;6676;45.192;5.722;2023-07-24T18:29:07;25.00;99.90
13223;DHT22;6676;45.192;5.722;2023-07-24T18:31:58;24.90;99.90
13223;DHT22;6676;45.192;5.722;2023-07-24T18:34:52;24.70;99.90
13223;DHT22;6676;45.192;5.722;2023-07-24T18:37:44;24.80;99.90
13223;DHT22;6676;45.192;5.722;2023-07-24T18:40:35;24.80;99.90
13223;DHT22;6676;45.192;5.722;2023-07-24T18:43:27;24.70;99.90
13223;DHT22;6676;45.192;5.722;2023-07-24T18:46:18;24.70;99.90
13223;DHT22;6676;45.192;5.722;2023-07-24T18:49:10;24.70;99.90
13223;DHT22;6676;45.192;5.722;2023-07-24T18:54:41;24.50;99.90
13223;DHT22;6676;45.192;5.722;2023-07-24T18:57:32;24.50;99.90
13223;DHT22;6676;45.192;5.722;2023-07-24T19:00:23;24.60;99.90
13223;DHT22;6676;45.192;5.722;2023-07-24T19:03:15;24.50;99.90
13223;DHT22;6676;45.192;5.722;2023-07-24T19:06:07;24.50;99.90
13223;DHT22;6676;45.192;5.722;2023-07-24T19:08:58;24.40;99.90
13223;DHT22;6676;45.192;5.722;2023-07-24T19:11:50;24.20;99.90
13223;DHT22;6676;45.192;5.722;2023-07-24T19:14:41;24.10;99.90
13223;DHT22;6676;45.192;5.722;2023-07-24T19:17:33;23.90;99.90
13223;DHT22;6676;45.192;5.722;2023-07-24T19:20:25;23.90;99.90
13223;DHT22;6676;45.192;5.722;2023-07-24T19:23:18;23.70;99.90
13223;DHT22;6676;45.192;5.722;2023-07-24T19:26:09;23.60;99.90
13223;DHT22;6676;45.192;5.722;2023-07-24T19:29:02;23.50;99.90
13223;DHT22;6676;45.192;5.722;2023-07-24T19:31:54;23.40;99.90
13223;DHT22;6676;45.192;5.722;2023-07-24T19:34:45;23.40;99.90
13223;DHT22;6676;45.192;5.722;2023-07-24T19:37:38;23.40;99.90
13223;DHT22;6676;45.192;5.722;2023-07-24T19:40:30;23.40;99.90
13223;DHT22;6676;45.192;5.722;2023-07-24T19:43:21;23.40;99.90
13223;DHT22;6676;45.192;5.722;2023-07-24T19:48:53;23.40;99.90
13223;DHT22;6676;45.192;5.722;2023-07-24T19:51:44;23.30;99.90
13223;DHT22;6676;45.192;5.722;2023-07-24T19:54:36;23.30;99.90
13223;DHT22;6676;45.192;5.722;2023-07-24T19:57:27;23.30;99.90
13223;DHT22;6676;45.192;5.722;2023-07-24T20:00:19;23.30;99.90
13223;DHT22;6676;45.192;5.722;2023-07-24T20:03:13;23.30;99.90
13223;DHT22;6676;45.192;5.722;2023-07-24T20:08:44;23.40;99.90
13223;DHT22;6676;45.192;5.722;2023-07-24T20:11:36;23.40;99.90
13223;DHT22;6676;45.192;5.722;2023-07-24T20:14:27;23.40;99.90
13223;DHT22;6676;45.192;5.722;2023-07-24T20:17:18;23.30;99.90
13223;DHT22;6676;45.192;5.722;2023-07-24T20:20:12;23.30;99.90
13223;DHT22;6676;45.192;5.722;2023-07-24T20:23:03;23.20;99.90
13223;DHT22;6676;45.192;5.722;2023-07-24T20:28:35;23.20;99.90
13223;DHT22;6676;45.192;5.722;2023-07-24T20:31:28;23.10;99.90
13223;DHT22;6676;45.192;5.722;2023-07-24T20:34:19;23.00;99.90
13223;DHT22;6676;45.192;5.722;2023-07-24T20:37:10;23.00;99.90
13223;DHT22;6676;45.192;5.722;2023-07-24T20:40:02;23.00;99.90
13223;DHT22;6676;45.192;5.722;2023-07-24T20:45:35;22.90;99.90
13223;DHT22;6676;45.192;5.722;2023-07-24T20:48:28;22.80;99.90
13223;DHT22;6676;45.192;5.722;2023-07-24T20:54:00;22.70;99.90
13223;DHT22;6676;45.192;5.722;2023-07-24T20:59:32;22.70;99.90